Saint Marys, Indiana
Current Conditions -  °F | °C
As of 1:54 AM on Wednesday 28 Jan 2015 (Local Time) from KSBN Reporting Station
Clear Clear  
Wind Chill: -9°   Ceiling: Unl
Heat Index: -9°   Visibility: 10mi
Dew Point: -13°   Wind: 0mph
Humidity: 77%   Direction: NA
Pressure: 30.27"   Gusts: NA
Location:  41.7197°N, 86.2504°W
Report Text: KSBN 280654Z 00000KT 10SM CLR M09/M13 A3027 RMK AO2 SLP262 T10941128
Loading
Personal Weather Stations






























Interactive Weather Map New forecast layout! Learn more

10-Day Weather Forecast

Advertisements
Track Severe Weather on mobile